sensor_id;sensor_type;location;lat;lon;timestamp;P1;durP1;ratioP1;P2;durP2;ratioP2
13477;SDS011;12598;62.382;17.344;2022-08-24T00:00:21;3.55;;;2.92;;
13477;SDS011;12598;62.382;17.344;2022-08-24T00:01:24;4.82;;;2.75;;
13477;SDS011;12598;62.382;17.344;2022-08-24T00:02:28;4.82;;;2.70;;
13477;SDS011;12598;62.382;17.344;2022-08-24T00:03:30;4.13;;;3.28;;
13477;SDS011;12598;62.382;17.344;2022-08-24T00:04:35;4.03;;;2.88;;
13477;SDS011;12598;62.382;17.344;2022-08-24T00:05:37;3.30;;;3.00;;
13477;SDS011;12598;62.382;17.344;2022-08-24T00:06:39;4.13;;;2.95;;
13477;SDS011;12598;62.382;17.344;2022-08-24T00:07:41;4.25;;;3.33;;
13477;SDS011;12598;62.382;17.344;2022-08-24T00:08:43;4.22;;;3.33;;
13477;SDS011;12598;62.382;17.344;2022-08-24T00:09:46;3.58;;;3.05;;
13477;SDS011;12598;62.382;17.344;2022-08-24T00:10:51;3.75;;;3.13;;
13477;SDS011;12598;62.382;17.344;2022-08-24T00:11:52;4.07;;;3.42;;
13477;SDS011;12598;62.382;17.344;2022-08-24T00:12:54;4.68;;;3.22;;
13477;SDS011;12598;62.382;17.344;2022-08-24T00:13:56;4.55;;;3.10;;
13477;SDS011;12598;62.382;17.344;2022-08-24T00:14:58;3.20;;;2.83;;
13477;SDS011;12598;62.382;17.344;2022-08-24T00:16:01;5.50;;;3.42;;
13477;SDS011;12598;62.382;17.344;2022-08-24T00:17:03;4.18;;;3.30;;
13477;SDS011;12598;62.382;17.344;2022-08-24T00:18:06;3.42;;;3.00;;
13477;SDS011;12598;62.382;17.344;2022-08-24T00:19:08;5.43;;;3.60;;
13477;SDS011;12598;62.382;17.344;2022-08-24T00:20:11;6.63;;;3.70;;
13477;SDS011;12598;62.382;17.344;2022-08-24T00:21:13;5.47;;;3.28;;
13477;SDS011;12598;62.382;17.344;2022-08-24T00:22:16;3.38;;;3.08;;
13477;SDS011;12598;62.382;17.344;2022-08-24T00:23:18;4.90;;;3.50;;
13477;SDS011;12598;62.382;17.344;2022-08-24T00:24:19;4.43;;;3.45;;
13477;SDS011;12598;62.382;17.344;2022-08-24T00:25:21;4.28;;;3.60;;
13477;SDS011;12598;62.382;17.344;2022-08-24T00:26:24;3.50;;;3.20;;
13477;SDS011;12598;62.382;17.344;2022-08-24T00:27:29;6.03;;;3.47;;
13477;SDS011;12598;62.382;17.344;2022-08-24T00:28:32;3.80;;;3.40;;
13477;SDS011;12598;62.382;17.344;2022-08-24T00:29:34;5.43;;;3.80;;
13477;SDS011;12598;62.382;17.344;2022-08-24T00:30:36;5.93;;;3.67;;
13477;SDS011;12598;62.382;17.344;2022-08-24T00:31:38;5.32;;;3.65;;
13477;SDS011;12598;62.382;17.344;2022-08-24T00:32:41;6.55;;;3.65;;
13477;SDS011;12598;62.382;17.344;2022-08-24T00:33:44;5.00;;;4.00;;
13477;SDS011;12598;62.382;17.344;2022-08-24T00:34:46;3.72;;;3.42;;
13477;SDS011;12598;62.382;17.344;2022-08-24T00:35:59;5.28;;;3.85;;
13477;SDS011;12598;62.382;17.344;2022-08-24T00:37:02;5.28;;;4.13;;
13477;SDS011;12598;62.382;17.344;2022-08-24T00:38:04;4.30;;;3.42;;
13477;SDS011;12598;62.382;17.344;2022-08-24T00:39:06;5.20;;;3.80;;
13477;SDS011;12598;62.382;17.344;2022-08-24T00:40:11;4.15;;;3.75;;
13477;SDS011;12598;62.382;17.344;2022-08-24T00:41:20;6.47;;;4.18;;
13477;SDS011;12598;62.382;17.344;2022-08-24T00:42:23;4.10;;;3.63;;
13477;SDS011;12598;62.382;17.344;2022-08-24T00:43:26;5.88;;;3.97;;
13477;SDS011;12598;62.382;17.344;2022-08-24T00:44:28;4.50;;;3.55;;
13477;SDS011;12598;62.382;17.344;2022-08-24T00:45:33;3.80;;;3.50;;
13477;SDS011;12598;62.382;17.344;2022-08-24T00:46:49;5.35;;;4.03;;
13477;SDS011;12598;62.382;17.344;2022-08-24T00:48:00;4.93;;;3.80;;
13477;SDS011;12598;62.382;17.344;2022-08-24T00:49:07;4.65;;;3.67;;
13477;SDS011;12598;62.382;17.344;2022-08-24T00:50:34;6.97;;;4.32;;
13477;SDS011;12598;62.382;17.344;2022-08-24T00:51:45;4.78;;;3.92;;
13477;SDS011;12598;62.382;17.344;2022-08-24T00:53:10;5.63;;;3.88;;
13477;SDS011;12598;62.382;17.344;2022-08-24T00:54:16;5.13;;;4.10;;
13477;SDS011;12598;62.382;17.344;2022-08-24T00:55:20;4.57;;;4.13;;
13477;SDS011;12598;62.382;17.344;2022-08-24T00:56:28;7.45;;;4.15;;
13477;SDS011;12598;62.382;17.344;2022-08-24T00:57:37;5.70;;;4.35;;
13477;SDS011;12598;62.382;17.344;2022-08-24T00:58:50;5.53;;;3.92;;
13477;SDS011;12598;62.382;17.344;2022-08-24T01:00:03;5.88;;;4.28;;
13477;SDS011;12598;62.382;17.344;2022-08-24T01:01:09;6.00;;;4.47;;
13477;SDS011;12598;62.382;17.344;2022-08-24T01:02:17;5.38;;;4.35;;
13477;SDS011;12598;62.382;17.344;2022-08-24T01:03:23;5.75;;;4.50;;
13477;SDS011;12598;62.382;17.344;2022-08-24T01:04:48;4.40;;;3.90;;
13477;SDS011;12598;62.382;17.344;2022-08-24T01:05:54;4.53;;;4.07;;
13477;SDS011;12598;62.382;17.344;2022-08-24T01:06:57;5.05;;;4.35;;
13477;SDS011;12598;62.382;17.344;2022-08-24T01:07:59;6.35;;;4.07;;
13477;SDS011;12598;62.382;17.344;2022-08-24T01:09:03;5.10;;;3.97;;
13477;SDS011;12598;62.382;17.344;2022-08-24T01:10:08;7.35;;;4.05;;
13477;SDS011;12598;62.382;17.344;2022-08-24T01:11:13;4.97;;;4.32;;
13477;SDS011;12598;62.382;17.344;2022-08-24T01:12:18;6.65;;;4.30;;
13477;SDS011;12598;62.382;17.344;2022-08-24T01:13:21;5.60;;;3.47;;
13477;SDS011;12598;62.382;17.344;2022-08-24T01:14:25;4.60;;;3.90;;
13477;SDS011;12598;62.382;17.344;2022-08-24T01:15:28;4.80;;;4.00;;
13477;SDS011;12598;62.382;17.344;2022-08-24T01:16:31;4.65;;;3.85;;
13477;SDS011;12598;62.382;17.344;2022-08-24T01:17:51;7.20;;;4.78;;
13477;SDS011;12598;62.382;17.344;2022-08-24T01:19:16;5.60;;;4.70;;
13477;SDS011;12598;62.382;17.344;2022-08-24T01:20:44;4.78;;;3.92;;
13477;SDS011;12598;62.382;17.344;2022-08-24T01:21:52;6.88;;;4.60;;
13477;SDS011;12598;62.382;17.344;2022-08-24T01:23:13;5.82;;;4.68;;
13477;SDS011;12598;62.382;17.344;2022-08-24T01:24:38;5.70;;;4.20;;
13477;SDS011;12598;62.382;17.344;2022-08-24T01:25:41;6.07;;;4.50;;
13477;SDS011;12598;62.382;17.344;2022-08-24T01:26:45;6.72;;;4.60;;
13477;SDS011;12598;62.382;17.344;2022-08-24T01:27:49;7.25;;;4.95;;
13477;SDS011;12598;62.382;17.344;2022-08-24T01:28:58;5.18;;;4.55;;
13477;SDS011;12598;62.382;17.344;2022-08-24T01:30:06;6.38;;;4.75;;
13477;SDS011;12598;62.382;17.344;2022-08-24T01:31:11;6.07;;;4.95;;
13477;SDS011;12598;62.382;17.344;2022-08-24T01:32:14;4.90;;;4.40;;
13477;SDS011;12598;62.382;17.344;2022-08-24T01:33:25;5.18;;;4.32;;
13477;SDS011;12598;62.382;17.344;2022-08-24T01:34:29;5.38;;;4.47;;
13477;SDS011;12598;62.382;17.344;2022-08-24T01:35:31;5.05;;;4.43;;
13477;SDS011;12598;62.382;17.344;2022-08-24T01:36:36;6.38;;;4.28;;
13477;SDS011;12598;62.382;17.344;2022-08-24T01:37:41;4.25;;;3.85;;
13477;SDS011;12598;62.382;17.344;2022-08-24T01:38:44;4.88;;;3.90;;
13477;SDS011;12598;62.382;17.344;2022-08-24T01:39:49;4.38;;;3.80;;
13477;SDS011;12598;62.382;17.344;2022-08-24T01:40:56;5.35;;;3.78;;
13477;SDS011;12598;62.382;17.344;2022-08-24T01:42:00;6.03;;;4.30;;
13477;SDS011;12598;62.382;17.344;2022-08-24T01:43:04;4.70;;;4.00;;
13477;SDS011;12598;62.382;17.344;2022-08-24T01:44:08;4.40;;;3.88;;
13477;SDS011;12598;62.382;17.344;2022-08-24T01:45:10;5.43;;;4.63;;
13477;SDS011;12598;62.382;17.344;2022-08-24T01:46:14;4.43;;;3.95;;
13477;SDS011;12598;62.382;17.344;2022-08-24T01:47:17;5.05;;;4.30;;
13477;SDS011;12598;62.382;17.344;2022-08-24T01:48:19;4.50;;;3.92;;
13477;SDS011;12598;62.382;17.344;2022-08-24T01:49:27;6.60;;;4.38;;
13477;SDS011;12598;62.382;17.344;2022-08-24T01:50:32;4.75;;;4.03;;
13477;SDS011;12598;62.382;17.344;2022-08-24T01:51:35;5.32;;;4.30;;
13477;SDS011;12598;62.382;17.344;2022-08-24T01:52:38;6.40;;;4.53;;
13477;SDS011;12598;62.382;17.344;2022-08-24T01:54:04;6.63;;;4.22;;
13477;SDS011;12598;62.382;17.344;2022-08-24T01:55:08;4.40;;;4.00;;
13477;SDS011;12598;62.382;17.344;2022-08-24T01:56:15;5.18;;;4.65;;
13477;SDS011;12598;62.382;17.344;2022-08-24T01:57:17;4.68;;;3.97;;
13477;SDS011;12598;62.382;17.344;2022-08-24T01:58:19;4.43;;;4.03;;
13477;SDS011;12598;62.382;17.344;2022-08-24T01:59:21;4.97;;;4.38;;
13477;SDS011;12598;62.382;17.344;2022-08-24T02:00:24;6.18;;;4.50;;
13477;SDS011;12598;62.382;17.344;2022-08-24T02:01:27;7.40;;;4.15;;
13477;SDS011;12598;62.382;17.344;2022-08-24T02:02:31;5.30;;;4.55;;
13477;SDS011;12598;62.382;17.344;2022-08-24T02:03:33;4.88;;;4.00;;
13477;SDS011;12598;62.382;17.344;2022-08-24T02:04:35;6.20;;;4.50;;
13477;SDS011;12598;62.382;17.344;2022-08-24T02:05:38;4.75;;;4.10;;
13477;SDS011;12598;62.382;17.344;2022-08-24T02:06:42;4.88;;;4.32;;
13477;SDS011;12598;62.382;17.344;2022-08-24T02:07:47;4.55;;;4.07;;
13477;SDS011;12598;62.382;17.344;2022-08-24T02:08:49;5.25;;;4.47;;
13477;SDS011;12598;62.382;17.344;2022-08-24T02:09:51;4.45;;;4.05;;
13477;SDS011;12598;62.382;17.344;2022-08-24T02:10:53;4.90;;;4.20;;
13477;SDS011;12598;62.382;17.344;2022-08-24T02:11:57;5.80;;;4.25;;
13477;SDS011;12598;62.382;17.344;2022-08-24T02:12:59;6.97;;;4.45;;
13477;SDS011;12598;62.382;17.344;2022-08-24T02:14:04;4.72;;;4.22;;
13477;SDS011;12598;62.382;17.344;2022-08-24T02:15:06;4.68;;;4.25;;
13477;SDS011;12598;62.382;17.344;2022-08-24T02:16:10;5.45;;;4.50;;
13477;SDS011;12598;62.382;17.344;2022-08-24T02:17:12;5.70;;;4.43;;
13477;SDS011;12598;62.382;17.344;2022-08-24T02:18:14;3.97;;;3.58;;
13477;SDS011;12598;62.382;17.344;2022-08-24T02:19:17;5.20;;;4.50;;
13477;SDS011;12598;62.382;17.344;2022-08-24T02:20:19;6.65;;;4.50;;
13477;SDS011;12598;62.382;17.344;2022-08-24T02:21:23;5.85;;;4.45;;
13477;SDS011;12598;62.382;17.344;2022-08-24T02:22:25;6.40;;;4.25;;
13477;SDS011;12598;62.382;17.344;2022-08-24T02:23:27;7.00;;;4.32;;
13477;SDS011;12598;62.382;17.344;2022-08-24T02:24:29;5.57;;;3.95;;
13477;SDS011;12598;62.382;17.344;2022-08-24T02:25:32;4.50;;;3.72;;
13477;SDS011;12598;62.382;17.344;2022-08-24T02:26:34;5.75;;;4.18;;
13477;SDS011;12598;62.382;17.344;2022-08-24T02:27:36;4.40;;;4.00;;
13477;SDS011;12598;62.382;17.344;2022-08-24T02:28:39;4.40;;;4.00;;
13477;SDS011;12598;62.382;17.344;2022-08-24T02:29:41;5.10;;;3.80;;
13477;SDS011;12598;62.382;17.344;2022-08-24T02:30:44;5.88;;;4.18;;
13477;SDS011;12598;62.382;17.344;2022-08-24T02:31:46;5.07;;;3.65;;
13477;SDS011;12598;62.382;17.344;2022-08-24T02:32:48;3.63;;;3.33;;
13477;SDS011;12598;62.382;17.344;2022-08-24T02:33:50;4.65;;;3.70;;
13477;SDS011;12598;62.382;17.344;2022-08-24T02:34:52;3.88;;;3.45;;
13477;SDS011;12598;62.382;17.344;2022-08-24T02:35:55;3.50;;;3.20;;
13477;SDS011;12598;62.382;17.344;2022-08-24T02:36:57;4.40;;;3.42;;
13477;SDS011;12598;62.382;17.344;2022-08-24T02:38:00;3.80;;;3.50;;
13477;SDS011;12598;62.382;17.344;2022-08-24T02:39:05;3.63;;;3.15;;
13477;SDS011;12598;62.382;17.344;2022-08-24T02:40:08;3.58;;;3.28;;
13477;SDS011;12598;62.382;17.344;2022-08-24T02:41:13;5.53;;;3.17;;
13477;SDS011;12598;62.382;17.344;2022-08-24T02:42:15;4.18;;;3.53;;
13477;SDS011;12598;62.382;17.344;2022-08-24T02:43:17;3.53;;;2.95;;
13477;SDS011;12598;62.382;17.344;2022-08-24T02:44:19;3.95;;;3.50;;
13477;SDS011;12598;62.382;17.344;2022-08-24T02:45:21;3.65;;;3.13;;
13477;SDS011;12598;62.382;17.344;2022-08-24T02:46:25;4.88;;;3.58;;
13477;SDS011;12598;62.382;17.344;2022-08-24T02:47:29;3.63;;;3.30;;
13477;SDS011;12598;62.382;17.344;2022-08-24T02:48:40;3.70;;;3.40;;
13477;SDS011;12598;62.382;17.344;2022-08-24T02:49:42;3.95;;;3.50;;
13477;SDS011;12598;62.382;17.344;2022-08-24T02:50:45;3.40;;;3.10;;
13477;SDS011;12598;62.382;17.344;2022-08-24T02:51:49;3.38;;;3.08;;
13477;SDS011;12598;62.382;17.344;2022-08-24T02:52:53;3.47;;;3.17;;
13477;SDS011;12598;62.382;17.344;2022-08-24T02:53:57;3.40;;;3.10;;
13477;SDS011;12598;62.382;17.344;2022-08-24T02:55:00;3.67;;;3.38;;
13477;SDS011;12598;62.382;17.344;2022-08-24T02:56:02;3.13;;;2.92;;
13477;SDS011;12598;62.382;17.344;2022-08-24T02:57:05;3.50;;;3.20;;
13477;SDS011;12598;62.382;17.344;2022-08-24T02:58:08;5.25;;;3.47;;
13477;SDS011;12598;62.382;17.344;2022-08-24T02:59:11;4.60;;;3.20;;
13477;SDS011;12598;62.382;17.344;2022-08-24T03:00:15;3.53;;;3.05;;
13477;SDS011;12598;62.382;17.344;2022-08-24T03:01:23;3.45;;;3.15;;
13477;SDS011;12598;62.382;17.344;2022-08-24T03:02:31;3.20;;;2.90;;
13477;SDS011;12598;62.382;17.344;2022-08-24T03:03:33;3.45;;;3.15;;
13477;SDS011;12598;62.382;17.344;2022-08-24T03:04:36;3.50;;;3.10;;
13477;SDS011;12598;62.382;17.344;2022-08-24T03:05:39;3.00;;;2.80;;
13477;SDS011;12598;62.382;17.344;2022-08-24T03:06:41;3.42;;;2.95;;
13477;SDS011;12598;62.382;17.344;2022-08-24T03:07:45;2.58;;;2.38;;
13477;SDS011;12598;62.382;17.344;2022-08-24T03:08:47;3.97;;;2.83;;
13477;SDS011;12598;62.382;17.344;2022-08-24T03:09:57;4.18;;;2.70;;
13477;SDS011;12598;62.382;17.344;2022-08-24T03:10:59;4.97;;;2.90;;
13477;SDS011;12598;62.382;17.344;2022-08-24T03:12:01;3.50;;;2.75;;
13477;SDS011;12598;62.382;17.344;2022-08-24T03:13:03;3.25;;;2.75;;
13477;SDS011;12598;62.382;17.344;2022-08-24T03:14:05;3.95;;;2.85;;
13477;SDS011;12598;62.382;17.344;2022-08-24T03:15:11;3.70;;;2.60;;
13477;SDS011;12598;62.382;17.344;2022-08-24T03:16:14;3.72;;;2.88;;
13477;SDS011;12598;62.382;17.344;2022-08-24T03:17:17;2.53;;;2.33;;
13477;SDS011;12598;62.382;17.344;2022-08-24T03:18:20;2.88;;;2.60;;
13477;SDS011;12598;62.382;17.344;2022-08-24T03:19:25;2.85;;;2.60;;
13477;SDS011;12598;62.382;17.344;2022-08-24T03:20:28;2.70;;;2.50;;
13477;SDS011;12598;62.382;17.344;2022-08-24T03:21:30;2.25;;;2.05;;
13477;SDS011;12598;62.382;17.344;2022-08-24T03:22:33;3.13;;;2.40;;
13477;SDS011;12598;62.382;17.344;2022-08-24T03:23:35;2.95;;;2.22;;
13477;SDS011;12598;62.382;17.344;2022-08-24T03:24:37;2.67;;;2.38;;
13477;SDS011;12598;62.382;17.344;2022-08-24T03:25:40;2.25;;;2.00;;
13477;SDS011;12598;62.382;17.344;2022-08-24T03:26:42;2.65;;;2.45;;
13477;SDS011;12598;62.382;17.344;2022-08-24T03:27:45;2.60;;;2.40;;
13477;SDS011;12598;62.382;17.344;2022-08-24T03:28:48;3.25;;;2.20;;
13477;SDS011;12598;62.382;17.344;2022-08-24T03:29:50;2.65;;;2.20;;
13477;SDS011;12598;62.382;17.344;2022-08-24T03:30:52;2.30;;;2.10;;
13477;SDS011;12598;62.382;17.344;2022-08-24T03:31:54;2.53;;;2.33;;
13477;SDS011;12598;62.382;17.344;2022-08-24T03:33:00;3.20;;;2.42;;
13477;SDS011;12598;62.382;17.344;2022-08-24T03:34:01;2.13;;;2.00;;
13477;SDS011;12598;62.382;17.344;2022-08-24T03:35:04;3.38;;;1.98;;
13477;SDS011;12598;62.382;17.344;2022-08-24T03:36:06;2.13;;;1.92;;
13477;SDS011;12598;62.382;17.344;2022-08-24T03:37:14;3.08;;;2.20;;
13477;SDS011;12598;62.382;17.344;2022-08-24T03:38:16;2.13;;;1.85;;
13477;SDS011;12598;62.382;17.344;2022-08-24T03:39:18;1.83;;;1.67;;
13477;SDS011;12598;62.382;17.344;2022-08-24T03:40:23;2.83;;;2.20;;
13477;SDS011;12598;62.382;17.344;2022-08-24T03:41:29;2.08;;;1.88;;
13477;SDS011;12598;62.382;17.344;2022-08-24T03:42:34;3.25;;;2.20;;
13477;SDS011;12598;62.382;17.344;2022-08-24T03:43:36;2.10;;;1.90;;
13477;SDS011;12598;62.382;17.344;2022-08-24T03:44:53;2.42;;;2.00;;
13477;SDS011;12598;62.382;17.344;2022-08-24T03:45:55;2.38;;;2.13;;
13477;SDS011;12598;62.382;17.344;2022-08-24T03:46:58;2.30;;;2.00;;
13477;SDS011;12598;62.382;17.344;2022-08-24T03:48:01;2.17;;;1.90;;
13477;SDS011;12598;62.382;17.344;2022-08-24T03:49:05;2.45;;;2.22;;
13477;SDS011;12598;62.382;17.344;2022-08-24T03:50:10;2.50;;;1.80;;
13477;SDS011;12598;62.382;17.344;2022-08-24T03:51:13;2.28;;;2.03;;
13477;SDS011;12598;62.382;17.344;2022-08-24T03:52:16;2.20;;;2.00;;
13477;SDS011;12598;62.382;17.344;2022-08-24T03:53:18;1.75;;;1.52;;
13477;SDS011;12598;62.382;17.344;2022-08-24T03:54:21;2.13;;;1.92;;
13477;SDS011;12598;62.382;17.344;2022-08-24T03:55:25;2.17;;;1.65;;
13477;SDS011;12598;62.382;17.344;2022-08-24T03:56:27;2.00;;;1.80;;
13477;SDS011;12598;62.382;17.344;2022-08-24T03:57:29;2.35;;;1.77;;
13477;SDS011;12598;62.382;17.344;2022-08-24T03:58:31;1.90;;;1.70;;
13477;SDS011;12598;62.382;17.344;2022-08-24T03:59:34;3.00;;;2.00;;
13477;SDS011;12598;62.382;17.344;2022-08-24T04:00:46;2.35;;;1.88;;
13477;SDS011;12598;62.382;17.344;2022-08-24T04:01:49;3.85;;;2.25;;
13477;SDS011;12598;62.382;17.344;2022-08-24T04:02:51;3.63;;;2.00;;
13477;SDS011;12598;62.382;17.344;2022-08-24T04:03:55;1.92;;;1.80;;
13477;SDS011;12598;62.382;17.344;2022-08-24T04:05:04;2.75;;;1.92;;
13477;SDS011;12598;62.382;17.344;2022-08-24T04:06:08;2.10;;;1.90;;
13477;SDS011;12598;62.382;17.344;2022-08-24T04:07:12;3.03;;;1.98;;
13477;SDS011;12598;62.382;17.344;2022-08-24T04:08:14;3.38;;;2.00;;
13477;SDS011;12598;62.382;17.344;2022-08-24T04:09:18;2.35;;;1.60;;
13477;SDS011;12598;62.382;17.344;2022-08-24T04:10:21;2.85;;;1.70;;
13477;SDS011;12598;62.382;17.344;2022-08-24T04:11:23;2.92;;;1.73;;
13477;SDS011;12598;62.382;17.344;2022-08-24T04:12:27;2.58;;;1.70;;
13477;SDS011;12598;62.382;17.344;2022-08-24T04:13:29;2.45;;;1.88;;
13477;SDS011;12598;62.382;17.344;2022-08-24T04:14:33;2.33;;;1.70;;
13477;SDS011;12598;62.382;17.344;2022-08-24T04:15:43;2.10;;;1.90;;
13477;SDS011;12598;62.382;17.344;2022-08-24T04:16:45;3.00;;;2.00;;
13477;SDS011;12598;62.382;17.344;2022-08-24T04:18:03;3.45;;;1.83;;
13477;SDS011;12598;62.382;17.344;2022-08-24T04:19:06;1.63;;;1.50;;
13477;SDS011;12598;62.382;17.344;2022-08-24T04:20:08;2.72;;;1.85;;
13477;SDS011;12598;62.382;17.344;2022-08-24T04:22:20;2.58;;;1.85;;
13477;SDS011;12598;62.382;17.344;2022-08-24T04:23:22;1.75;;;1.48;;
13477;SDS011;12598;62.382;17.344;2022-08-24T04:24:30;2.70;;;1.50;;
13477;SDS011;12598;62.382;17.344;2022-08-24T04:25:39;2.30;;;1.60;;
13477;SDS011;12598;62.382;17.344;2022-08-24T04:26:45;2.13;;;1.90;;
13477;SDS011;12598;62.382;17.344;2022-08-24T04:27:48;2.28;;;1.60;;
13477;SDS011;12598;62.382;17.344;2022-08-24T04:28:50;2.00;;;1.80;;
13477;SDS011;12598;62.382;17.344;2022-08-24T04:29:53;2.05;;;1.45;;
13477;SDS011;12598;62.382;17.344;2022-08-24T04:30:57;1.60;;;1.50;;
13477;SDS011;12598;62.382;17.344;2022-08-24T04:32:04;2.28;;;1.60;;
13477;SDS011;12598;62.382;17.344;2022-08-24T04:33:08;1.60;;;1.50;;
13477;SDS011;12598;62.382;17.344;2022-08-24T04:34:11;2.33;;;1.85;;
13477;SDS011;12598;62.382;17.344;2022-08-24T04:35:15;2.33;;;1.85;;
13477;SDS011;12598;62.382;17.344;2022-08-24T04:36:19;2.33;;;2.10;;
13477;SDS011;12598;62.382;17.344;2022-08-24T04:37:22;3.20;;;1.95;;
13477;SDS011;12598;62.382;17.344;2022-08-24T04:38:30;2.28;;;2.08;;
13477;SDS011;12598;62.382;17.344;2022-08-24T04:39:58;2.50;;;1.60;;
13477;SDS011;12598;62.382;17.344;2022-08-24T04:41:06;2.60;;;2.35;;
13477;SDS011;12598;62.382;17.344;2022-08-24T04:42:15;2.63;;;2.17;;
13477;SDS011;12598;62.382;17.344;2022-08-24T04:43:18;5.82;;;2.20;;
13477;SDS011;12598;62.382;17.344;2022-08-24T04:44:21;2.58;;;2.20;;
13477;SDS011;12598;62.382;17.344;2022-08-24T04:45:23;2.53;;;1.95;;
13477;SDS011;12598;62.382;17.344;2022-08-24T04:46:26;3.03;;;2.20;;
13477;SDS011;12598;62.382;17.344;2022-08-24T04:47:29;5.15;;;2.72;;
13477;SDS011;12598;62.382;17.344;2022-08-24T04:48:33;2.40;;;2.00;;
13477;SDS011;12598;62.382;17.344;2022-08-24T04:49:36;3.42;;;2.35;;
13477;SDS011;12598;62.382;17.344;2022-08-24T04:50:40;2.53;;;2.33;;
13477;SDS011;12598;62.382;17.344;2022-08-24T04:51:43;5.15;;;2.38;;
13477;SDS011;12598;62.382;17.344;2022-08-24T04:52:45;2.88;;;2.28;;
13477;SDS011;12598;62.382;17.344;2022-08-24T04:53:50;2.35;;;2.13;;
13477;SDS011;12598;62.382;17.344;2022-08-24T04:54:52;3.20;;;2.20;;
13477;SDS011;12598;62.382;17.344;2022-08-24T04:55:57;3.30;;;2.53;;
13477;SDS011;12598;62.382;17.344;2022-08-24T04:57:00;3.47;;;2.13;;
13477;SDS011;12598;62.382;17.344;2022-08-24T04:58:01;2.70;;;2.08;;
13477;SDS011;12598;62.382;17.344;2022-08-24T04:59:04;4.10;;;2.20;;
13477;SDS011;12598;62.382;17.344;2022-08-24T05:00:08;2.53;;;1.88;;
13477;SDS011;12598;62.382;17.344;2022-08-24T05:01:16;3.88;;;2.30;;
13477;SDS011;12598;62.382;17.344;2022-08-24T05:02:21;3.58;;;1.90;;
13477;SDS011;12598;62.382;17.344;2022-08-24T05:03:25;2.28;;;2.08;;
13477;SDS011;12598;62.382;17.344;2022-08-24T05:04:27;2.25;;;1.98;;
13477;SDS011;12598;62.382;17.344;2022-08-24T05:05:32;2.35;;;1.85;;
13477;SDS011;12598;62.382;17.344;2022-08-24T05:06:34;2.55;;;2.08;;
13477;SDS011;12598;62.382;17.344;2022-08-24T05:07:36;2.13;;;1.90;;
13477;SDS011;12598;62.382;17.344;2022-08-24T05:08:38;3.05;;;1.98;;
13477;SDS011;12598;62.382;17.344;2022-08-24T05:09:40;2.67;;;1.77;;
13477;SDS011;12598;62.382;17.344;2022-08-24T05:10:43;2.67;;;2.00;;
13477;SDS011;12598;62.382;17.344;2022-08-24T05:11:48;3.20;;;1.95;;
13477;SDS011;12598;62.382;17.344;2022-08-24T05:12:55;1.95;;;1.60;;
13477;SDS011;12598;62.382;17.344;2022-08-24T05:13:58;4.28;;;2.00;;
13477;SDS011;12598;62.382;17.344;2022-08-24T05:15:00;2.33;;;1.90;;
13477;SDS011;12598;62.382;17.344;2022-08-24T05:16:07;1.95;;;1.83;;
13477;SDS011;12598;62.382;17.344;2022-08-24T05:17:11;2.42;;;1.90;;
13477;SDS011;12598;62.382;17.344;2022-08-24T05:18:14;2.63;;;1.83;;
13477;SDS011;12598;62.382;17.344;2022-08-24T05:19:17;2.42;;;1.70;;
13477;SDS011;12598;62.382;17.344;2022-08-24T05:20:19;2.70;;;2.00;;
13477;SDS011;12598;62.382;17.344;2022-08-24T05:21:24;3.25;;;1.70;;
13477;SDS011;12598;62.382;17.344;2022-08-24T05:22:28;3.13;;;2.00;;
13477;SDS011;12598;62.382;17.344;2022-08-24T05:23:31;1.90;;;1.75;;
13477;SDS011;12598;62.382;17.344;2022-08-24T05:24:33;2.95;;;1.70;;
13477;SDS011;12598;62.382;17.344;2022-08-24T05:25:36;3.15;;;1.70;;
13477;SDS011;12598;62.382;17.344;2022-08-24T05:26:39;3.65;;;2.03;;
13477;SDS011;12598;62.382;17.344;2022-08-24T05:27:42;1.65;;;1.55;;
13477;SDS011;12598;62.382;17.344;2022-08-24T05:28:44;3.53;;;1.90;;
13477;SDS011;12598;62.382;17.344;2022-08-24T05:29:50;3.08;;;1.77;;
13477;SDS011;12598;62.382;17.344;2022-08-24T05:30:54;2.50;;;1.52;;
13477;SDS011;12598;62.382;17.344;2022-08-24T05:31:56;1.88;;;1.50;;
13477;SDS011;12598;62.382;17.344;2022-08-24T05:33:02;3.97;;;1.85;;
13477;SDS011;12598;62.382;17.344;2022-08-24T05:34:04;1.95;;;1.60;;
13477;SDS011;12598;62.382;17.344;2022-08-24T05:35:07;4.15;;;1.98;;
13477;SDS011;12598;62.382;17.344;2022-08-24T05:36:17;1.95;;;1.70;;
13477;SDS011;12598;62.382;17.344;2022-08-24T05:37:21;3.03;;;2.00;;
13477;SDS011;12598;62.382;17.344;2022-08-24T05:38:38;1.70;;;1.52;;
13477;SDS011;12598;62.382;17.344;2022-08-24T05:39:40;2.33;;;1.50;;
13477;SDS011;12598;62.382;17.344;2022-08-24T05:40:42;2.95;;;1.63;;
13477;SDS011;12598;62.382;17.344;2022-08-24T05:41:45;2.78;;;2.03;;
13477;SDS011;12598;62.382;17.344;2022-08-24T05:42:56;2.22;;;1.67;;
13477;SDS011;12598;62.382;17.344;2022-08-24T05:43:59;2.63;;;1.52;;
13477;SDS011;12598;62.382;17.344;2022-08-24T05:45:07;3.28;;;1.70;;
13477;SDS011;12598;62.382;17.344;2022-08-24T05:46:09;4.78;;;1.88;;
13477;SDS011;12598;62.382;17.344;2022-08-24T05:47:12;4.57;;;1.88;;
13477;SDS011;12598;62.382;17.344;2022-08-24T05:48:15;2.92;;;2.00;;
13477;SDS011;12598;62.382;17.344;2022-08-24T05:49:35;4.88;;;1.90;;
13477;SDS011;12598;62.382;17.344;2022-08-24T05:50:42;3.63;;;1.80;;
13477;SDS011;12598;62.382;17.344;2022-08-24T05:51:46;3.08;;;1.85;;
13477;SDS011;12598;62.382;17.344;2022-08-24T05:52:50;4.45;;;1.80;;
13477;SDS011;12598;62.382;17.344;2022-08-24T05:53:53;3.38;;;2.00;;
13477;SDS011;12598;62.382;17.344;2022-08-24T05:54:57;3.72;;;1.80;;
13477;SDS011;12598;62.382;17.344;2022-08-24T05:56:04;3.67;;;2.20;;
13477;SDS011;12598;62.382;17.344;2022-08-24T05:57:09;2.35;;;1.65;;
13477;SDS011;12598;62.382;17.344;2022-08-24T05:58:24;2.97;;;1.85;;
13477;SDS011;12598;62.382;17.344;2022-08-24T05:59:35;3.40;;;2.00;;
13477;SDS011;12598;62.382;17.344;2022-08-24T06:00:44;3.35;;;1.85;;
13477;SDS011;12598;62.382;17.344;2022-08-24T06:01:46;4.22;;;2.13;;
13477;SDS011;12598;62.382;17.344;2022-08-24T06:02:49;5.55;;;2.20;;
13477;SDS011;12598;62.382;17.344;2022-08-24T06:03:55;3.60;;;2.28;;
13477;SDS011;12598;62.382;17.344;2022-08-24T06:04:57;5.75;;;2.17;;
13477;SDS011;12598;62.382;17.344;2022-08-24T06:06:00;5.22;;;1.85;;
13477;SDS011;12598;62.382;17.344;2022-08-24T06:07:06;2.42;;;1.50;;
13477;SDS011;12598;62.382;17.344;2022-08-24T06:08:15;5.75;;;1.90;;
13477;SDS011;12598;62.382;17.344;2022-08-24T06:09:18;5.68;;;1.90;;
13477;SDS011;12598;62.382;17.344;2022-08-24T06:10:21;3.45;;;1.80;;
13477;SDS011;12598;62.382;17.344;2022-08-24T06:11:39;2.03;;;1.63;;
13477;SDS011;12598;62.382;17.344;2022-08-24T06:12:41;4.35;;;2.10;;
13477;SDS011;12598;62.382;17.344;2022-08-24T06:13:43;5.13;;;2.00;;
13477;SDS011;12598;62.382;17.344;2022-08-24T06:14:50;3.83;;;1.70;;
13477;SDS011;12598;62.382;17.344;2022-08-24T06:16:29;3.22;;;1.90;;
13477;SDS011;12598;62.382;17.344;2022-08-24T06:17:25;2.92;;;1.60;;
13477;SDS011;12598;62.382;17.344;2022-08-24T06:18:27;2.10;;;1.73;;
13477;SDS011;12598;62.382;17.344;2022-08-24T06:19:30;2.72;;;1.92;;
13477;SDS011;12598;62.382;17.344;2022-08-24T06:20:36;3.40;;;1.65;;
13477;SDS011;12598;62.382;17.344;2022-08-24T06:21:41;4.20;;;1.77;;
13477;SDS011;12598;62.382;17.344;2022-08-24T06:22:44;2.78;;;1.80;;
13477;SDS011;12598;62.382;17.344;2022-08-24T06:23:47;2.85;;;1.40;;
13477;SDS011;12598;62.382;17.344;2022-08-24T06:24:49;2.42;;;1.40;;